P.t. Monto — VMBF — position and weather

sailwx.info

Track history (hours):
 
Tides and Currents Weather Stations Pressure Air Temp Water Temp Dewpoint Dewpoint Depression Visibility Wind Speed Wind Dir Waves Ship Positions

P.t. Monto

Last reported at 2018-Mar-16 12:59 UTC. Time now 2018-May-21 20:27 UTC.
Position S 26°49' E 153°09'.
Warning: this ship's position is months out of date.

Length 34 m; draft 3.6 m.

Type: Tug. MMSI: 503612000.

Date/timePositionNaut miles runAvg speedWind from/ knotsBaromVisibWave heightAir tempDewpointWater temp
2018-Mar-16 12:59S 26°49' E 153°09'22 8.7
2018-Mar-16 10:24S 27°10' E 153°20'3 8.5
2018-Mar-16 10:00S 27°12' E 153°17'4 8.7
2018-Mar-16 09:30S 27°16' E 153°14'5 8.9
2018-Mar-16 08:56S 27°20' E 153°11'4 8.8
2018-Mar-16 08:30S 27°23' E 153°09'4 7.3
2018-Mar-16 07:56S 27°27' E 153°06'1 0.1
2018-Mar-15 19:41S 27°27' E 153°05'0 0.0
2018-Mar-15 19:28S 27°27' E 153°05'0 0.0
2018-Mar-15 18:37S 27°27' E 153°05'0 0.0
2018-Mar-15 18:27S 27°27' E 153°05'0 0.0
2018-Mar-15 17:46S 27°27' E 153°05'0 0.0
2018-Mar-15 16:53S 27°27' E 153°05'0 0.0
2018-Mar-15 15:43S 27°27' E 153°05'0 0.0
2018-Mar-15 15:08S 27°27' E 153°05'0 0.0
2018-Mar-15 13:11S 27°27' E 153°05'0 0.0
2018-Mar-15 12:59S 27°27' E 153°05'0 0.0
2018-Mar-15 12:14S 27°27' E 153°05'0 0.0
2018-Mar-15 11:56S 27°27' E 153°05'0 0.0
2018-Mar-15 11:16S 27°27' E 153°05'0 0.0
2018-Mar-15 10:58S 27°27' E 153°05'0 0.0
2018-Mar-15 10:30S 27°27' E 153°05'0 0.0
2018-Mar-15 09:55S 27°27' E 153°05'0 0.0
2018-Mar-15 09:28S 27°27' E 153°05'0 0.0
2018-Mar-15 04:23S 27°27' E 153°05'0 0.0
2018-Mar-15 03:44S 27°27' E 153°05'0 0.0
2018-Mar-15 02:33S 27°27' E 153°05'0 0.1
2018-Mar-15 02:30S 27°27' E 153°05'0 0.0
2018-Mar-15 02:00S 27°27' E 153°05'0 0.0
2018-Mar-15 01:21S 27°27' E 153°05'0 0.0
2018-Mar-15 00:58S 27°27' E 153°05'0 0.0
2018-Mar-14 18:38S 27°27' E 153°05'0 0.0
2018-Mar-14 07:11S 27°27' E 153°05'0 0.0
2018-Mar-14 07:00S 27°27' E 153°05'0 0.0
2018-Mar-13 18:42S 27°27' E 153°05'0 0.0
2018-Mar-13 18:17S 27°27' E 153°05'0 0.0
2018-Mar-13 18:00S 27°27' E 153°05'0 0.0
2018-Mar-13 01:27S 27°27' E 153°05'0 0.0
2018-Mar-12 09:23S 27°27' E 153°05'0 0.0
2018-Mar-12 08:59S 27°27' E 153°05'0 0.0
2018-Mar-12 07:16S 27°27' E 153°05'0 0.0
2018-Mar-12 07:00S 27°27' E 153°05'0 0.0
2018-Mar-12 05:15S 27°27' E 153°05'0 0.0
2018-Mar-12 04:56S 27°27' E 153°05'  
2018-Mar-09 03:20S 27°27' E 153°05'0 0.0
2018-Mar-09 02:48S 27°27' E 153°05'0 0.0
2018-Mar-07 11:08S 27°27' E 153°05'0 0.0
2018-Mar-07 10:49S 27°27' E 153°05'  
Track history (hours):
 
Tides and Currents Weather Stations Pressure Air Temp Water Temp Dewpoint Dewpoint Depression Visibility Wind Speed Wind Dir Waves Ship Positions

P.t. Monto

Last reported at 2018-Mar-16 12:59 UTC. Time now 2018-May-21 20:27 UTC.
Position S 26°49' E 153°09'.
Warning: this ship's position is months out of date.

Length 34 m; draft 3.6 m.

Type: Tug. MMSI: 503612000.

Date/timePositionNaut miles runAvg speedWind from/ knotsBaromVisibWave heightAir tempDewpointWater temp
2018-Mar-16 12:59S 26°49' E 153°09'22 8.7
2018-Mar-16 10:24S 27°10' E 153°20'3 8.5
2018-Mar-16 10:00S 27°12' E 153°17'4 8.7
2018-Mar-16 09:30S 27°16' E 153°14'5 8.9
2018-Mar-16 08:56S 27°20' E 153°11'4 8.8
2018-Mar-16 08:30S 27°23' E 153°09'4 7.3
2018-Mar-16 07:56S 27°27' E 153°06'1 0.1
2018-Mar-15 19:41S 27°27' E 153°05'0 0.0
2018-Mar-15 19:28S 27°27' E 153°05'0 0.0
2018-Mar-15 18:37S 27°27' E 153°05'0 0.0
2018-Mar-15 18:27S 27°27' E 153°05'0 0.0
2018-Mar-15 17:46S 27°27' E 153°05'0 0.0
2018-Mar-15 16:53S 27°27' E 153°05'0 0.0
2018-Mar-15 15:43S 27°27' E 153°05'0 0.0
2018-Mar-15 15:08S 27°27' E 153°05'0 0.0
2018-Mar-15 13:11S 27°27' E 153°05'0 0.0
2018-Mar-15 12:59S 27°27' E 153°05'0 0.0
2018-Mar-15 12:14S 27°27' E 153°05'0 0.0
2018-Mar-15 11:56S 27°27' E 153°05'0 0.0
2018-Mar-15 11:16S 27°27' E 153°05'0 0.0
2018-Mar-15 10:58S 27°27' E 153°05'0 0.0
2018-Mar-15 10:30S 27°27' E 153°05'0 0.0
2018-Mar-15 09:55S 27°27' E 153°05'0 0.0
2018-Mar-15 09:28S 27°27' E 153°05'0 0.0
2018-Mar-15 04:23S 27°27' E 153°05'0 0.0
2018-Mar-15 03:44S 27°27' E 153°05'0 0.0
2018-Mar-15 02:33S 27°27' E 153°05'0 0.1
2018-Mar-15 02:30S 27°27' E 153°05'0 0.0
2018-Mar-15 02:00S 27°27' E 153°05'0 0.0
2018-Mar-15 01:21S 27°27' E 153°05'0 0.0
2018-Mar-15 00:58S 27°27' E 153°05'0 0.0
2018-Mar-14 18:38S 27°27' E 153°05'0 0.0
2018-Mar-14 07:11S 27°27' E 153°05'0 0.0
2018-Mar-14 07:00S 27°27' E 153°05'0 0.0
2018-Mar-13 18:42S 27°27' E 153°05'0 0.0
2018-Mar-13 18:17S 27°27' E 153°05'0 0.0
2018-Mar-13 18:00S 27°27' E 153°05'0 0.0
2018-Mar-13 01:27S 27°27' E 153°05'0 0.0
2018-Mar-12 09:23S 27°27' E 153°05'0 0.0
2018-Mar-12 08:59S 27°27' E 153°05'0 0.0
2018-Mar-12 07:16S 27°27' E 153°05'0 0.0
2018-Mar-12 07:00S 27°27' E 153°05'0 0.0
2018-Mar-12 05:15S 27°27' E 153°05'0 0.0
2018-Mar-12 04:56S 27°27' E 153°05'  
2018-Mar-09 03:20S 27°27' E 153°05'0 0.0
2018-Mar-09 02:48S 27°27' E 153°05'0 0.0
2018-Mar-07 11:08S 27°27' E 153°05'0 0.0
2018-Mar-07 10:49S 27°27' E 153°05'  

Dump ship's entire track history